createdAt,value
2019-01-15T00:00:37.913Z,44.38
2019-01-15T00:01:37.947Z,44.38
2019-01-15T00:02:37.784Z,44.39
2019-01-15T00:03:38.137Z,44.39
2019-01-15T00:04:38.518Z,44.37
2019-01-15T00:05:37.786Z,44.35
2019-01-15T00:06:37.568Z,44.35
2019-01-15T00:07:38.176Z,44.38
2019-01-15T00:08:38.445Z,44.37
2019-01-15T00:09:38.013Z,44.37
2019-01-15T00:10:37.900Z,44.4
2019-01-15T00:11:37.825Z,44.37
2019-01-15T00:12:38.667Z,44.41
2019-01-15T00:13:37.617Z,44.37
2019-01-15T00:14:37.788Z,44.37
2019-01-15T00:15:37.667Z,44.37
2019-01-15T00:16:38.165Z,44.42
2019-01-15T00:17:37.972Z,44.37
2019-01-15T00:18:39.579Z,44.37
2019-01-15T00:19:38.072Z,44.37
2019-01-15T00:20:37.535Z,44.37
2019-01-15T00:21:37.692Z,44.36
2019-01-15T00:22:37.929Z,44.39
2019-01-15T00:23:37.891Z,44.37
2019-01-15T00:24:37.684Z,44.36
2019-01-15T00:25:37.682Z,44.38
2019-01-15T00:26:38.373Z,44.39
2019-01-15T00:27:37.843Z,44.35
2019-01-15T00:28:37.693Z,44.36
2019-01-15T00:29:37.810Z,44.38
2019-01-15T00:30:38.071Z,44.38
2019-01-15T00:31:38.121Z,44.43
2019-01-15T00:32:37.642Z,44.38
2019-01-15T00:33:37.672Z,44.37
2019-01-15T00:34:37.973Z,44.39
2019-01-15T00:35:37.929Z,44.36
2019-01-15T00:36:37.970Z,44.39
2019-01-15T00:37:37.958Z,44.39
2019-01-15T00:38:37.938Z,44.4
2019-01-15T00:39:37.670Z,44.37
2019-01-15T00:40:38.131Z,44.41
2019-01-15T00:41:37.904Z,44.41
2019-01-15T00:42:38.667Z,44.4
2019-01-15T00:43:38.584Z,44.41
2019-01-15T00:44:38.072Z,44.38
2019-01-15T00:45:38.174Z,44.43
2019-01-15T00:46:37.600Z,44.41
2019-01-15T00:47:37.625Z,44.37
2019-01-15T00:48:37.731Z,44.37
2019-01-15T00:49:37.887Z,44.4
2019-01-15T00:50:38.158Z,44.41
2019-01-15T00:51:37.740Z,44.42
2019-01-15T00:52:37.803Z,44.42
2019-01-15T00:53:37.754Z,44.43
2019-01-15T00:54:37.754Z,44.41
2019-01-15T00:55:37.702Z,44.39
2019-01-15T00:56:37.786Z,44.39
2019-01-15T00:57:37.888Z,44.39
2019-01-15T00:58:37.746Z,44.42
2019-01-15T00:59:37.727Z,44.42
2019-01-15T01:00:37.815Z,44.43
2019-01-15T01:01:37.708Z,44.41
2019-01-15T01:02:37.802Z,44.41
2019-01-15T01:03:37.802Z,44.39
2019-01-15T01:04:38.180Z,44.4
2019-01-15T01:05:38.037Z,44.36
2019-01-15T01:06:38.056Z,44.41
2019-01-15T01:07:38.000Z,44.4
2019-01-15T01:08:38.123Z,44.42
2019-01-15T01:09:37.670Z,44.42
2019-01-15T01:10:37.630Z,44.42
2019-01-15T01:11:37.669Z,44.42
2019-01-15T01:12:37.664Z,44.42
2019-01-15T01:13:37.818Z,44.38
2019-01-15T01:14:37.987Z,44.41
2019-01-15T01:15:38.375Z,44.44
2019-01-15T01:16:38.013Z,44.43
2019-01-15T01:17:37.755Z,44.45
2019-01-15T01:18:37.898Z,44.42
2019-01-15T01:19:38.287Z,44.43
2019-01-15T01:20:37.748Z,44.42
2019-01-15T01:21:37.952Z,44.42
2019-01-15T01:22:37.872Z,44.44
2019-01-15T01:23:37.674Z,44.43
2019-01-15T01:24:38.235Z,44.44
2019-01-15T01:25:38.055Z,44.44
2019-01-15T01:26:38.081Z,44.46
2019-01-15T01:27:38.043Z,44.44
2019-01-15T01:28:37.784Z,44.43
2019-01-15T01:29:37.992Z,44.45
2019-01-15T01:30:37.618Z,44.44
2019-01-15T01:31:38.200Z,44.41
2019-01-15T01:32:38.295Z,44.41
2019-01-15T01:33:37.972Z,44.39
2019-01-15T01:34:38.014Z,44.44
2019-01-15T01:35:37.994Z,44.44
2019-01-15T01:36:38.131Z,44.41
2019-01-15T01:37:39.434Z,44.44
2019-01-15T01:38:37.847Z,44.4
2019-01-15T01:39:37.818Z,44.43
2019-01-15T01:40:37.829Z,44.47
2019-01-15T01:41:37.956Z,44.47
2019-01-15T01:42:37.803Z,44.41
2019-01-15T01:43:38.144Z,44.37
2019-01-15T01:44:37.752Z,44.41
2019-01-15T01:45:38.128Z,44.4
2019-01-15T01:46:38.009Z,44.41
2019-01-15T01:47:38.080Z,44.44
2019-01-15T01:48:38.193Z,44.43
2019-01-15T01:49:37.966Z,44.41
2019-01-15T01:50:37.825Z,44.4
2019-01-15T01:51:37.992Z,44.44
2019-01-15T01:52:38.366Z,44.44
2019-01-15T01:53:37.937Z,44.43
2019-01-15T01:54:37.941Z,44.4
2019-01-15T01:55:39.494Z,44.43
2019-01-15T01:56:38.447Z,44.43
2019-01-15T01:57:37.818Z,44.46
2019-01-15T01:58:37.996Z,44.45
2019-01-15T01:59:37.916Z,44.44
2019-01-15T02:00:37.949Z,44.44
2019-01-15T02:01:38.247Z,44.44
2019-01-15T02:02:37.526Z,44.41
2019-01-15T02:03:38.318Z,44.45
2019-01-15T02:04:37.694Z,44.44
2019-01-15T02:05:37.585Z,44.46
2019-01-15T02:06:37.941Z,44.41
2019-01-15T02:07:37.666Z,44.47
2019-01-15T02:08:38.025Z,44.48
2019-01-15T02:09:38.076Z,44.42
2019-01-15T02:10:37.949Z,44.46
2019-01-15T02:11:37.676Z,44.47
2019-01-15T02:12:38.122Z,44.46
2019-01-15T02:13:37.680Z,44.42
2019-01-15T02:14:37.866Z,44.42
2019-01-15T02:15:38.155Z,44.46
2019-01-15T02:16:37.671Z,44.43
2019-01-15T02:17:38.013Z,44.48
2019-01-15T02:18:38.092Z,44.46
2019-01-15T02:19:37.556Z,44.47
2019-01-15T02:20:37.646Z,44.48
2019-01-15T02:21:37.829Z,44.47
2019-01-15T02:22:37.659Z,44.43
2019-01-15T02:23:37.744Z,44.45
2019-01-15T02:24:37.805Z,44.44
2019-01-15T02:25:37.951Z,44.43
2019-01-15T02:26:38.286Z,44.43
2019-01-15T02:27:37.567Z,44.42
2019-01-15T02:28:37.989Z,44.47
2019-01-15T02:29:37.792Z,44.44
2019-01-15T02:30:37.654Z,44.45
2019-01-15T02:31:37.957Z,44.46
2019-01-15T02:32:38.029Z,44.44
2019-01-15T02:33:37.711Z,44.46
2019-01-15T02:34:38.046Z,44.49
2019-01-15T02:35:37.811Z,44.44
2019-01-15T02:36:38.060Z,44.43
2019-01-15T02:37:38.474Z,44.45
2019-01-15T02:38:37.715Z,44.43
2019-01-15T02:39:37.829Z,44.45
2019-01-15T02:40:37.896Z,44.48
2019-01-15T02:41:37.818Z,44.47
2019-01-15T02:42:47.579Z,44.49
2019-01-15T02:43:37.703Z,44.49
2019-01-15T02:44:37.721Z,44.5
2019-01-15T02:45:37.940Z,44.48
2019-01-15T02:46:37.733Z,44.52
2019-01-15T02:47:37.812Z,44.5
2019-01-15T02:48:38.050Z,44.48
2019-01-15T02:49:37.676Z,44.49
2019-01-15T02:50:37.867Z,44.45
2019-01-15T02:51:37.829Z,44.52
2019-01-15T02:52:37.757Z,44.48
2019-01-15T02:53:37.921Z,44.51
2019-01-15T02:54:37.864Z,44.44
2019-01-15T02:55:37.764Z,44.48
2019-01-15T02:56:37.799Z,44.49
2019-01-15T02:57:38.201Z,44.48
2019-01-15T02:58:38.556Z,44.47
2019-01-15T02:59:37.590Z,44.47
2019-01-15T03:00:38.011Z,44.47
2019-01-15T03:01:38.723Z,44.48
2019-01-15T03:02:37.626Z,44.44
2019-01-15T03:03:37.691Z,44.47
2019-01-15T03:04:37.841Z,44.48
2019-01-15T03:05:37.835Z,44.49
2019-01-15T03:06:37.849Z,44.49
2019-01-15T03:07:37.842Z,44.55
2019-01-15T03:08:38.464Z,44.52
2019-01-15T03:09:37.901Z,44.51
2019-01-15T03:10:37.493Z,44.5
2019-01-15T03:11:38.147Z,44.52
2019-01-15T03:12:38.176Z,44.48
2019-01-15T03:13:37.462Z,44.52
2019-01-15T03:14:37.867Z,44.5
2019-01-15T03:15:37.721Z,44.51
2019-01-15T03:16:37.917Z,44.48
2019-01-15T03:17:37.689Z,44.48
2019-01-15T03:18:37.688Z,44.5
2019-01-15T03:19:37.967Z,44.51
2019-01-15T03:20:39.627Z,44.46
2019-01-15T03:21:38.022Z,44.52
2019-01-15T03:22:37.742Z,44.48
2019-01-15T03:23:37.764Z,44.52
2019-01-15T03:24:37.841Z,44.56
2019-01-15T03:25:37.688Z,44.47
2019-01-15T03:26:37.874Z,44.5
2019-01-15T03:27:37.817Z,44.49
2019-01-15T03:28:37.664Z,44.53
2019-01-15T03:29:37.962Z,44.52
2019-01-15T03:30:38.312Z,44.49
2019-01-15T03:31:38.188Z,44.48
2019-01-15T03:32:37.958Z,44.51
2019-01-15T03:33:38.153Z,44.52
2019-01-15T03:34:37.829Z,44.48
2019-01-15T03:35:37.678Z,44.53
2019-01-15T03:36:38.114Z,44.49
2019-01-15T03:37:39.118Z,44.49
2019-01-15T03:38:39.632Z,44.5
2019-01-15T03:39:37.938Z,44.52
2019-01-15T03:40:37.853Z,44.52
2019-01-15T03:41:37.816Z,44.49
2019-01-15T03:42:38.039Z,44.51
2019-01-15T03:43:38.337Z,44.53
2019-01-15T03:44:37.503Z,44.51
2019-01-15T03:45:38.002Z,44.48
2019-01-15T03:46:38.392Z,44.49
2019-01-15T03:47:37.913Z,44.53
2019-01-15T03:48:37.745Z,44.51
2019-01-15T03:49:37.949Z,44.54
2019-01-15T03:50:37.889Z,44.51
2019-01-15T03:51:38.020Z,44.53
2019-01-15T03:52:37.727Z,44.53
2019-01-15T03:53:37.816Z,44.48
2019-01-15T03:54:37.746Z,44.57
2019-01-15T03:55:38.666Z,44.51
2019-01-15T03:56:37.817Z,44.53
2019-01-15T03:57:37.663Z,44.47
2019-01-15T03:58:38.067Z,44.5
2019-01-15T03:59:37.778Z,44.53
2019-01-15T04:00:37.701Z,44.48
2019-01-15T04:01:37.865Z,44.47
2019-01-15T04:02:37.642Z,44.52
2019-01-15T04:03:37.762Z,44.51
2019-01-15T04:04:37.511Z,44.52
2019-01-15T04:05:37.803Z,44.52
2019-01-15T04:06:38.182Z,44.53
2019-01-15T04:07:37.516Z,44.48
2019-01-15T04:08:37.909Z,44.51
2019-01-15T04:09:37.732Z,44.49
2019-01-15T04:10:37.534Z,44.52
2019-01-15T04:11:38.056Z,44.55
2019-01-15T04:12:38.060Z,44.5
2019-01-15T04:13:37.485Z,44.49
2019-01-15T04:14:37.929Z,44.51
2019-01-15T04:15:37.890Z,44.49
2019-01-15T04:16:37.734Z,44.48
2019-01-15T04:17:37.743Z,44.5
2019-01-15T04:18:37.617Z,44.53
2019-01-15T04:19:37.754Z,44.49
2019-01-15T04:20:37.957Z,44.49
2019-01-15T04:21:37.753Z,44.52
2019-01-15T04:22:37.738Z,44.49
2019-01-15T04:23:37.815Z,44.54
2019-01-15T04:24:37.482Z,44.52
2019-01-15T04:25:37.788Z,44.5
2019-01-15T04:26:37.938Z,44.5
2019-01-15T04:27:37.943Z,44.46
2019-01-15T04:28:38.518Z,44.5
2019-01-15T04:29:38.018Z,44.51
2019-01-15T04:30:37.943Z,44.5
2019-01-15T04:31:38.076Z,44.5
2019-01-15T04:32:37.804Z,44.48
2019-01-15T04:33:37.830Z,44.5
2019-01-15T04:34:38.011Z,44.46
2019-01-15T04:35:37.766Z,44.51
2019-01-15T04:36:37.731Z,44.5
2019-01-15T04:37:38.447Z,44.5
2019-01-15T04:38:37.693Z,44.49
2019-01-15T04:39:37.984Z,44.44
2019-01-15T04:40:37.733Z,44.5
2019-01-15T04:41:37.934Z,44.48
2019-01-15T04:42:37.689Z,44.49
2019-01-15T04:43:38.183Z,44.49
2019-01-15T04:44:37.586Z,44.55
2019-01-15T04:45:37.618Z,44.54
2019-01-15T04:46:37.564Z,44.57
2019-01-15T04:47:37.771Z,44.54
2019-01-15T04:48:37.635Z,44.54
2019-01-15T04:49:37.485Z,44.51
2019-01-15T04:50:37.894Z,44.55
2019-01-15T04:51:37.748Z,44.57
2019-01-15T04:52:38.080Z,44.51
2019-01-15T04:53:37.727Z,44.48
2019-01-15T04:54:37.812Z,44.47
2019-01-15T04:55:37.503Z,44.49
2019-01-15T04:56:37.892Z,44.46
2019-01-15T04:57:37.655Z,44.45
2019-01-15T04:58:37.496Z,44.43
2019-01-15T04:59:37.830Z,44.42
2019-01-15T05:00:37.775Z,44.39
2019-01-15T05:01:37.713Z,44.39
2019-01-15T05:02:38.076Z,44.36
2019-01-15T05:03:37.821Z,44.34
2019-01-15T05:04:37.994Z,44.37
2019-01-15T05:05:37.884Z,44.3
2019-01-15T05:06:37.555Z,44.33
2019-01-15T05:07:37.801Z,44.3
2019-01-15T05:08:38.214Z,44.32
2019-01-15T05:09:37.766Z,44.25
2019-01-15T05:10:37.992Z,44.29
2019-01-15T05:11:37.742Z,44.26
2019-01-15T05:12:37.547Z,44.27
2019-01-15T05:13:37.608Z,44.25
2019-01-15T05:14:37.758Z,44.25
2019-01-15T05:15:37.565Z,44.2
2019-01-15T05:16:37.893Z,44.2
2019-01-15T05:17:38.997Z,44.18
2019-01-15T05:18:37.702Z,44.19
2019-01-15T05:19:37.820Z,44.15
2019-01-15T05:20:37.833Z,44.11
2019-01-15T05:21:38.591Z,44.14
2019-01-15T05:22:37.819Z,44.1
2019-01-15T05:23:37.919Z,44.52
2019-01-15T05:24:37.951Z,44.23
2019-01-15T05:25:37.957Z,44.11
2019-01-15T05:26:38.077Z,44.11
2019-01-15T05:27:37.878Z,44.13
2019-01-15T05:28:37.751Z,44.09
2019-01-15T05:29:37.477Z,44.08
2019-01-15T05:30:37.875Z,44.07
2019-01-15T05:31:38.186Z,44.05
2019-01-15T05:32:37.734Z,44.06
2019-01-15T05:33:37.921Z,44.09
2019-01-15T05:34:38.000Z,44.05
2019-01-15T05:35:38.573Z,44.08
2019-01-15T05:36:38.068Z,44.04
2019-01-15T05:37:37.736Z,44.06
2019-01-15T05:38:38.090Z,44.06
2019-01-15T05:39:37.878Z,44.05
2019-01-15T05:40:38.118Z,44.1
2019-01-15T05:41:37.661Z,44.16
2019-01-15T05:42:38.616Z,44.05
2019-01-15T05:43:37.460Z,44.16
2019-01-15T05:44:37.952Z,44.09
2019-01-15T05:45:37.914Z,44.07
2019-01-15T05:46:37.780Z,44.13
2019-01-15T05:47:37.650Z,44.08
2019-01-15T05:48:37.748Z,44.08
2019-01-15T05:49:37.972Z,44.13
2019-01-15T05:50:37.863Z,44.14
2019-01-15T05:51:37.865Z,44.08
2019-01-15T05:52:37.812Z,44.03
2019-01-15T05:53:37.661Z,44.11
2019-01-15T05:54:37.725Z,44.09
2019-01-15T05:55:37.548Z,44.09
2019-01-15T05:56:37.913Z,44.12
2019-01-15T05:57:37.871Z,44.12
2019-01-15T05:58:38.040Z,44.1
2019-01-15T05:59:37.817Z,44.08
2019-01-15T06:00:37.519Z,44.1
2019-01-15T06:01:37.825Z,44.09
2019-01-15T06:02:37.733Z,44.04
2019-01-15T06:03:37.437Z,44.06
2019-01-15T06:04:37.742Z,44.1
2019-01-15T06:05:38.063Z,44.06
2019-01-15T06:06:37.816Z,44.08
2019-01-15T06:07:37.940Z,44.1
2019-01-15T06:08:38.010Z,44.03
2019-01-15T06:09:37.886Z,44.07
2019-01-15T06:10:37.837Z,44.06
2019-01-15T06:11:37.724Z,44.06
2019-01-15T06:12:37.957Z,44.08
2019-01-15T06:13:43.186Z,44.05
2019-01-15T06:14:37.648Z,44.07
2019-01-15T06:15:37.457Z,44.03
2019-01-15T06:16:37.985Z,44.04
2019-01-15T06:17:37.891Z,44.04
2019-01-15T06:18:39.473Z,44.01
2019-01-15T06:19:39.611Z,44.05
2019-01-15T06:20:37.765Z,44.05
2019-01-15T06:21:37.691Z,44.05
2019-01-15T06:22:37.476Z,44.05
2019-01-15T06:23:37.906Z,44
2019-01-15T06:24:37.734Z,44.02
2019-01-15T06:25:38.065Z,44
2019-01-15T06:26:37.705Z,44.01
2019-01-15T06:27:39.517Z,44.03
2019-01-15T06:28:39.317Z,43.97
2019-01-15T06:29:37.582Z,44.08
2019-01-15T06:30:37.699Z,41.75
2019-01-15T06:31:37.909Z,40.59
2019-01-15T06:32:37.791Z,40.12
2019-01-15T06:33:38.694Z,39.74
2019-01-15T06:34:38.973Z,39.26
2019-01-15T06:35:39.526Z,39.28
2019-01-15T06:36:39.163Z,39.41
2019-01-15T06:37:37.852Z,39.35
2019-01-15T06:38:37.846Z,40.24
2019-01-15T06:39:38.005Z,40.5
2019-01-15T06:40:37.542Z,40.9
2019-01-15T06:41:38.109Z,41.18
2019-01-15T06:42:37.983Z,41.48
2019-01-15T06:43:37.768Z,41.6
2019-01-15T06:44:37.830Z,41.5
2019-01-15T06:45:38.419Z,41.52
2019-01-15T06:46:38.109Z,41.58
2019-01-15T06:47:37.549Z,42.24
2019-01-15T06:48:38.076Z,42.2
2019-01-15T06:49:37.525Z,42.06
2019-01-15T06:50:37.589Z,42.09
2019-01-15T06:51:37.728Z,42.15
2019-01-15T06:52:37.710Z,42.21
2019-01-15T06:53:37.936Z,42.23
2019-01-15T06:54:37.671Z,42.15
2019-01-15T06:55:37.385Z,42.22
2019-01-15T06:56:37.711Z,42.25
2019-01-15T06:57:38.018Z,42.16
2019-01-15T06:58:37.859Z,42.28
2019-01-15T06:59:37.553Z,42.28
2019-01-15T07:00:38.620Z,42.24
2019-01-15T07:01:37.820Z,42.28
2019-01-15T07:02:38.048Z,42.33
2019-01-15T07:03:38.371Z,42.35
2019-01-15T07:04:44.433Z,42.35
2019-01-15T07:05:37.627Z,42.34
2019-01-15T07:06:37.454Z,42.39
2019-01-15T07:07:37.979Z,42.38
2019-01-15T07:08:37.706Z,42.39
2019-01-15T07:09:37.775Z,42.39
2019-01-15T07:10:38.597Z,42.38
2019-01-15T07:11:37.920Z,42.44
2019-01-15T07:12:39.407Z,42.4
2019-01-15T07:13:37.744Z,42.47
2019-01-15T07:14:37.657Z,42.41
2019-01-15T07:15:37.789Z,42.39
2019-01-15T07:16:37.916Z,42.48
2019-01-15T07:17:37.795Z,42.43
2019-01-15T07:18:37.834Z,42.43
2019-01-15T07:19:37.849Z,42.47
2019-01-15T07:20:38.261Z,42.52
2019-01-15T07:21:37.769Z,42.51
2019-01-15T07:22:37.618Z,42.48
2019-01-15T07:23:37.789Z,42.52
2019-01-15T07:24:38.160Z,42.59
2019-01-15T07:25:37.660Z,42.59
2019-01-15T07:26:37.732Z,42.6
2019-01-15T07:27:37.850Z,42.58
2019-01-15T07:28:37.982Z,42.56
2019-01-15T07:29:37.890Z,42.55
2019-01-15T07:30:37.713Z,42.6
2019-01-15T07:31:37.539Z,42.64
2019-01-15T07:32:37.499Z,42.65
2019-01-15T07:33:37.445Z,42.65
2019-01-15T07:34:37.839Z,42.64
2019-01-15T07:35:37.476Z,42.69
2019-01-15T07:36:37.553Z,42.73
2019-01-15T07:37:37.838Z,42.68
2019-01-15T07:38:37.480Z,42.72
2019-01-15T07:39:37.771Z,42.71
2019-01-15T07:40:37.727Z,42.73
2019-01-15T07:41:37.800Z,42.75
2019-01-15T07:42:37.571Z,42.73
2019-01-15T07:43:37.719Z,42.77
2019-01-15T07:44:37.772Z,42.77
2019-01-15T07:45:38.030Z,42.79
2019-01-15T07:46:37.373Z,42.78
2019-01-15T07:47:37.819Z,42.81
2019-01-15T07:48:37.858Z,42.76
2019-01-15T07:49:37.504Z,42.72
2019-01-15T07:50:37.945Z,42.8
2019-01-15T07:51:38.768Z,42.8
2019-01-15T07:52:37.697Z,42.77
2019-01-15T07:53:37.819Z,42.84
2019-01-15T07:54:37.646Z,42.8
2019-01-15T07:55:38.032Z,42.85
2019-01-15T07:56:37.985Z,42.85
2019-01-15T07:57:37.852Z,42.84
2019-01-15T07:58:37.641Z,42.84
2019-01-15T07:59:37.654Z,42.86
2019-01-15T08:00:37.836Z,42.84
2019-01-15T08:01:37.574Z,42.84
2019-01-15T08:02:37.819Z,42.85
2019-01-15T08:03:37.531Z,42.91
2019-01-15T08:04:37.920Z,42.86
2019-01-15T08:05:37.790Z,42.87
2019-01-15T08:06:37.851Z,42.92
2019-01-15T08:07:37.538Z,42.91
2019-01-15T08:08:37.661Z,42.9
2019-01-15T08:09:37.532Z,42.87
2019-01-15T08:10:37.899Z,42.9
2019-01-15T08:11:37.917Z,42.89
2019-01-15T08:12:37.936Z,42.9
2019-01-15T08:13:37.519Z,42.92
2019-01-15T08:14:37.655Z,42.92
2019-01-15T08:15:37.730Z,42.9
2019-01-15T08:16:37.855Z,42.94
2019-01-15T08:17:37.791Z,42.96
2019-01-15T08:18:37.750Z,42.92
2019-01-15T08:19:37.618Z,42.9
2019-01-15T08:20:37.473Z,42.95
2019-01-15T08:21:37.760Z,42.9
2019-01-15T08:22:38.012Z,42.91
2019-01-15T08:23:37.844Z,42.97
2019-01-15T08:24:37.869Z,42.92
2019-01-15T08:25:37.770Z,43
2019-01-15T08:26:37.503Z,43.02
2019-01-15T08:27:37.588Z,42.97
2019-01-15T08:28:37.981Z,42.98
2019-01-15T08:29:37.807Z,42.99
2019-01-15T08:30:37.580Z,42.98
2019-01-15T08:31:38.150Z,42.95
2019-01-15T08:32:37.554Z,42.96
2019-01-15T08:33:37.939Z,43.01
2019-01-15T08:34:37.869Z,42.99
2019-01-15T08:35:37.670Z,42.98
2019-01-15T08:36:37.690Z,42.99
2019-01-15T08:37:39.289Z,42.96
2019-01-15T08:38:37.935Z,42.98
2019-01-15T08:39:38.184Z,42.95
2019-01-15T08:40:37.393Z,42.98
2019-01-15T08:41:37.752Z,43.06
2019-01-15T08:42:37.552Z,42.98
2019-01-15T08:43:37.576Z,43.01
2019-01-15T08:44:37.506Z,43
2019-01-15T08:45:37.799Z,43
2019-01-15T08:46:37.751Z,42.96
2019-01-15T08:47:38.040Z,43.05
2019-01-15T08:48:37.851Z,43.06
2019-01-15T08:49:37.763Z,43
2019-01-15T08:50:37.953Z,43.02
2019-01-15T08:51:37.748Z,43.03
2019-01-15T08:52:39.355Z,43
2019-01-15T08:53:37.618Z,42.98
2019-01-15T08:54:37.960Z,43.06
2019-01-15T08:55:38.068Z,43.04
2019-01-15T08:56:37.621Z,43
2019-01-15T08:57:37.725Z,42.99
2019-01-15T08:58:39.384Z,42.96
2019-01-15T08:59:37.644Z,43.05
2019-01-15T09:00:38.578Z,43.06
2019-01-15T09:01:37.555Z,43.01
2019-01-15T09:02:37.641Z,43.06
2019-01-15T09:03:37.649Z,43.03
2019-01-15T09:04:38.587Z,43.05
2019-01-15T09:05:38.159Z,43.04
2019-01-15T09:06:37.802Z,43.04
2019-01-15T09:07:37.487Z,43.06
2019-01-15T09:08:37.792Z,43.1
2019-01-15T09:09:37.907Z,42.98
2019-01-15T09:10:37.869Z,43.3
2019-01-15T09:11:37.819Z,43.5
2019-01-15T09:12:37.694Z,43.51
2019-01-15T09:13:37.759Z,43.62
2019-01-15T09:14:37.760Z,43.99
2019-01-15T09:15:37.747Z,44.01
2019-01-15T09:16:37.853Z,43.99
2019-01-15T09:17:37.551Z,44.08
2019-01-15T09:18:38.193Z,44.02
2019-01-15T09:19:37.553Z,43.97
2019-01-15T09:20:37.711Z,43.99
2019-01-15T09:21:37.562Z,44.22
2019-01-15T09:22:37.466Z,44.17
2019-01-15T09:23:37.638Z,43.92
2019-01-15T09:24:38.025Z,43.93
2019-01-15T09:25:37.847Z,43.98
2019-01-15T09:26:38.037Z,43.88
2019-01-15T09:27:38.122Z,43.83
2019-01-15T09:28:37.462Z,43.9
2019-01-15T09:29:37.619Z,43.89
2019-01-15T09:30:37.690Z,43.99
2019-01-15T09:31:37.417Z,43.94
2019-01-15T09:32:38.062Z,43.84
2019-01-15T09:33:37.774Z,43.82
2019-01-15T09:34:37.585Z,43.71
2019-01-15T09:35:37.992Z,43.68
2019-01-15T09:36:38.135Z,43.88
2019-01-15T09:37:37.857Z,43.9
2019-01-15T09:38:38.261Z,44
2019-01-15T09:39:38.117Z,43.71
2019-01-15T09:40:38.473Z,43.77
2019-01-15T09:41:37.792Z,43.87
2019-01-15T09:42:37.891Z,43.75
2019-01-15T09:43:37.762Z,43.82
2019-01-15T09:44:37.992Z,43.83
2019-01-15T09:45:38.137Z,43.78
2019-01-15T09:46:37.759Z,43.73
2019-01-15T09:47:37.568Z,43.73
2019-01-15T09:48:37.756Z,43.71
2019-01-15T09:49:37.755Z,43.98
2019-01-15T09:50:37.746Z,43.86
2019-01-15T09:51:39.576Z,43.76
2019-01-15T09:52:37.327Z,43.69
2019-01-15T09:53:38.379Z,43.66
2019-01-15T09:54:37.632Z,43.74
2019-01-15T09:55:38.207Z,43.83
2019-01-15T09:56:37.793Z,43.69
2019-01-15T09:57:37.537Z,43.77
2019-01-15T09:58:37.563Z,43.75
2019-01-15T09:59:37.601Z,43.82
2019-01-15T10:00:37.355Z,43.65
2019-01-15T10:01:37.581Z,43.94
2019-01-15T10:02:38.630Z,43.92
2019-01-15T10:03:37.360Z,43.8
2019-01-15T10:04:37.896Z,43.76
2019-01-15T10:05:39.506Z,43.66
2019-01-15T10:06:38.099Z,43.61
2019-01-15T10:07:37.684Z,43.51
2019-01-15T10:08:39.358Z,43.59
2019-01-15T10:09:38.553Z,43.76
2019-01-15T10:10:37.629Z,43.79
2019-01-15T10:11:39.485Z,43.87
2019-01-15T10:12:37.592Z,43.53
2019-01-15T10:13:38.792Z,43.62
2019-01-15T10:14:41.946Z,43.59
2019-01-15T10:15:37.935Z,43.75
2019-01-15T10:16:37.511Z,43.49
2019-01-15T10:17:37.653Z,43.49
2019-01-15T10:18:37.874Z,43.62
2019-01-15T10:19:38.017Z,43.53
2019-01-15T10:20:37.377Z,43.6
2019-01-15T10:21:37.424Z,43.44
2019-01-15T10:22:37.903Z,43.41
2019-01-15T10:23:37.500Z,43.44
2019-01-15T10:24:37.537Z,43.5
2019-01-15T10:25:37.695Z,43.47
2019-01-15T10:26:37.617Z,43.62
2019-01-15T10:27:37.533Z,43.83
2019-01-15T10:28:37.844Z,43.49
2019-01-15T10:29:37.781Z,43.34
2019-01-15T10:30:37.762Z,43.3
2019-01-15T10:31:37.967Z,43.32
2019-01-15T10:32:37.805Z,43.34
2019-01-15T10:33:37.565Z,43.31
2019-01-15T10:34:37.950Z,43.4
2019-01-15T10:35:37.476Z,43.35
2019-01-15T10:36:37.533Z,43.37
2019-01-15T10:37:37.691Z,43.33
2019-01-15T10:38:38.595Z,43.41
2019-01-15T10:39:37.697Z,43.42
2019-01-15T10:40:37.827Z,43.43
2019-01-15T10:41:37.429Z,43.38
2019-01-15T10:42:37.763Z,43.38
2019-01-15T10:43:38.076Z,43.42
2019-01-15T10:44:37.914Z,43.4
2019-01-15T10:45:37.546Z,43.42
2019-01-15T10:46:37.764Z,43.43
2019-01-15T10:47:37.598Z,43.4
2019-01-15T10:48:37.609Z,43.38
2019-01-15T10:49:37.743Z,43.4
2019-01-15T10:50:37.445Z,43.39
2019-01-15T10:51:37.667Z,43.37
2019-01-15T10:52:37.798Z,43.4
2019-01-15T10:53:37.756Z,43.39
2019-01-15T10:54:37.876Z,43.42
2019-01-15T10:55:37.716Z,43.4
2019-01-15T10:56:37.497Z,43.41
2019-01-15T10:57:37.529Z,43.45
2019-01-15T10:58:37.908Z,43.59
2019-01-15T10:59:37.747Z,43.68
2019-01-15T11:00:37.506Z,43.89
2019-01-15T11:01:37.857Z,43.82
2019-01-15T11:02:38.293Z,43.74
2019-01-15T11:03:37.443Z,43.67
2019-01-15T11:04:37.783Z,43.56
2019-01-15T11:05:37.787Z,43.51
2019-01-15T11:06:37.524Z,43.43
2019-01-15T11:07:38.014Z,43.36
2019-01-15T11:08:37.774Z,43.3
2019-01-15T11:09:37.437Z,43.28
2019-01-15T11:10:37.413Z,43.24
2019-01-15T11:11:37.646Z,43.32
2019-01-15T11:12:37.714Z,43.59
2019-01-15T11:13:37.390Z,43.05
2019-01-15T11:14:37.481Z,43.17
2019-01-15T11:15:43.755Z,43.15
2019-01-15T11:16:37.902Z,43.23
2019-01-15T11:17:37.837Z,43.23
2019-01-15T11:18:37.325Z,43.16
2019-01-15T11:19:37.447Z,43.24
2019-01-15T11:20:37.441Z,43.27
2019-01-15T11:21:38.294Z,43.27
2019-01-15T11:22:37.787Z,43.25
2019-01-15T11:23:38.063Z,43.34
2019-01-15T11:24:38.765Z,43.29
2019-01-15T11:25:37.979Z,43.29
2019-01-15T11:26:37.701Z,43.29
2019-01-15T11:27:37.797Z,43.25
2019-01-15T11:28:39.163Z,43.29
2019-01-15T11:29:37.752Z,43.32
2019-01-15T11:30:38.124Z,43.34
2019-01-15T11:31:37.660Z,43.38
2019-01-15T11:32:38.958Z,43.39
2019-01-15T11:33:37.831Z,43.33
2019-01-15T11:34:37.783Z,43.32
2019-01-15T11:35:37.763Z,43.4
2019-01-15T11:36:38.325Z,43.39
2019-01-15T11:37:39.327Z,43.38
2019-01-15T11:38:37.941Z,43.4
2019-01-15T11:39:38.133Z,43.36
2019-01-15T11:40:37.561Z,43.36
2019-01-15T11:41:37.890Z,43.38
2019-01-15T11:42:37.553Z,43.36
2019-01-15T11:43:39.389Z,43.44
2019-01-15T11:44:37.494Z,43.43
2019-01-15T11:45:37.516Z,43.36
2019-01-15T11:46:38.110Z,43.43
2019-01-15T11:47:37.806Z,43.36
2019-01-15T11:48:37.571Z,43.43
2019-01-15T11:49:37.856Z,43.35
2019-01-15T11:50:37.473Z,43.41
2019-01-15T11:51:37.441Z,43.39
2019-01-15T11:52:37.488Z,43.35
2019-01-15T11:53:37.866Z,43.4
2019-01-15T11:54:38.030Z,43.34
2019-01-15T11:55:37.446Z,43.39
2019-01-15T11:56:38.269Z,43.36
2019-01-15T11:57:37.966Z,43.36
2019-01-15T11:58:37.561Z,43.33
2019-01-15T11:59:37.768Z,43.32
2019-01-15T12:00:37.814Z,43.33
2019-01-15T12:01:37.523Z,43.38
2019-01-15T12:02:37.898Z,43.3
2019-01-15T12:03:37.463Z,43.33
2019-01-15T12:04:37.528Z,43.29
2019-01-15T12:05:37.980Z,43.29
2019-01-15T12:06:37.314Z,43.29
2019-01-15T12:07:37.666Z,43.29
2019-01-15T12:08:37.651Z,43.27
2019-01-15T12:09:38.470Z,43.29
2019-01-15T12:10:37.459Z,43.29
2019-01-15T12:11:37.585Z,43.27
2019-01-15T12:12:37.443Z,43.25
2019-01-15T12:13:37.782Z,43.2
2019-01-15T12:14:37.291Z,43.22
2019-01-15T12:15:37.809Z,43.22
2019-01-15T12:16:37.742Z,43.24
2019-01-15T12:17:37.703Z,43.22
2019-01-15T12:18:37.400Z,43.23
2019-01-15T12:19:37.704Z,43.2
2019-01-15T12:20:39.651Z,43.23
2019-01-15T12:21:38.099Z,43.24
2019-01-15T12:22:37.799Z,43.2
2019-01-15T12:23:37.445Z,43.24
2019-01-15T12:24:37.863Z,43.16
2019-01-15T12:25:37.637Z,43.19
2019-01-15T12:26:37.607Z,43.16
2019-01-15T12:27:38.066Z,43.15
2019-01-15T12:28:38.082Z,43.17
2019-01-15T12:29:37.569Z,43.17
2019-01-15T12:30:37.638Z,43.14
2019-01-15T12:31:37.809Z,43.2
2019-01-15T12:32:37.569Z,43.13
2019-01-15T12:33:37.572Z,43.17
2019-01-15T12:34:37.513Z,43.19
2019-01-15T12:35:37.580Z,43.15
2019-01-15T12:36:37.791Z,43.14
2019-01-15T12:37:37.797Z,43.2
2019-01-15T12:38:37.933Z,43.11
2019-01-15T12:39:37.830Z,43.13
2019-01-15T12:40:37.358Z,43.17
2019-01-15T12:41:37.851Z,43.13
2019-01-15T12:42:37.387Z,43.16
2019-01-15T12:43:37.515Z,43.14
2019-01-15T12:44:37.443Z,43.14
2019-01-15T12:45:37.555Z,43.11
2019-01-15T12:46:37.796Z,43.13
2019-01-15T12:47:37.873Z,43.11
2019-01-15T12:48:37.932Z,43.13
2019-01-15T12:49:37.821Z,43.15
2019-01-15T12:50:39.257Z,43.12
2019-01-15T12:51:37.915Z,43.16
2019-01-15T12:52:37.717Z,43.15
2019-01-15T12:53:37.351Z,43.15
2019-01-15T12:54:37.914Z,43.21
2019-01-15T12:55:37.790Z,43.25
2019-01-15T12:56:37.901Z,43.24